Hereford, United Kingdom
Current Conditions -  °F | °C
As of 6:50 AM on Friday 19 Dec 2014 (Local Time) from EGFF Reporting Station
Overcast Overcast  
Wind Chill: 39°   Ceiling: 3000
Heat Index: 46°   Visibility: 6mi
Dew Point: 43°   Wind: 17mph
Humidity: 87%   Direction: 300°WNW
Pressure: 29.88"   Gusts: NA
Location:  52.07°N, 3.12°W
Report Text: EGFF 190650Z AUTO 30015KT 9999 FEW025 OVC030 08/06 Q1012
Loading
Personal Weather Stations






























Interactive Weather Map New forecast layout! Learn more

10-Day Weather Forecast

Advertisements
Track Severe Weather on mobile